createdAt,value
2022-08-22T00:01:39.878Z,94733.47
2022-08-22T00:02:49.030Z,94746.88
2022-08-22T00:04:14.031Z,94734.56
2022-08-22T00:06:49.034Z,94733.19
2022-08-22T00:09:29.304Z,94730.31
2022-08-22T00:12:07.771Z,94726.75
2022-08-22T00:14:41.111Z,94739.03
2022-08-22T00:17:23.762Z,94729.56
2022-08-22T00:19:55.521Z,94732.59
2022-08-22T00:22:32.587Z,94739.31
2022-08-22T00:25:25.605Z,94734.06
2022-08-22T00:28:00.325Z,94731.81
2022-08-22T00:30:29.141Z,94730.81
2022-08-22T00:33:02.414Z,94727.94
2022-08-22T00:35:34.310Z,94736.81
2022-08-22T00:38:07.185Z,94727.44
2022-08-22T00:40:49.903Z,94729.50
2022-08-22T00:43:48.182Z,94728.03
2022-08-22T00:46:29.512Z,94730.09
2022-08-22T00:49:10.905Z,94726.72
2022-08-22T00:52:14.862Z,94730.25
2022-08-22T00:55:11.442Z,94734.00
2022-08-22T00:57:54.583Z,94730.25
2022-08-22T01:00:25.269Z,94724.91
2022-08-22T01:03:12.849Z,94726.28
2022-08-22T01:05:52.730Z,94723.22
2022-08-22T01:08:39.357Z,94725.97
2022-08-22T01:11:23.096Z,94725.19
2022-08-22T01:14:10.558Z,94722.00
2022-08-22T01:17:02.876Z,94722.78
2022-08-22T01:20:07.670Z,94724.94
2022-08-22T01:22:59.340Z,94720.13
2022-08-22T01:26:05.162Z,94723.56
2022-08-22T01:29:07.965Z,94719.34
2022-08-22T01:32:09.762Z,94719.41
2022-08-22T01:34:56.741Z,94721.31
2022-08-22T01:37:47.650Z,94725.25
2022-08-22T01:40:53.770Z,94727.91
2022-08-22T01:43:59.193Z,94725.34
2022-08-22T01:46:35.340Z,94716.75
2022-08-22T01:49:11.905Z,94715.59
2022-08-22T01:51:47.086Z,94723.00
2022-08-22T01:54:25.172Z,94720.91
2022-08-22T01:56:58.347Z,94732.94
2022-08-22T01:59:42.555Z,94732.88
2022-08-22T02:02:32.082Z,94727.25
2022-08-22T02:05:09.234Z,94729.69
2022-08-22T02:07:48.335Z,94736.97
2022-08-22T02:10:22.994Z,94732.81
2022-08-22T02:13:02.487Z,94730.22
2022-08-22T02:15:45.241Z,94727.13
2022-08-22T02:18:19.044Z,94722.44
2022-08-22T02:20:58.094Z,94726.78
2022-08-22T02:23:33.007Z,94730.59
2022-08-22T02:26:07.347Z,94727.47
2022-08-22T02:28:57.249Z,94733.09
2022-08-22T02:31:37.009Z,94732.38
2022-08-22T02:34:19.991Z,94732.44
2022-08-22T02:36:52.283Z,94728.56
2022-08-22T02:39:27.088Z,94736.28
2022-08-22T02:41:58.279Z,94738.94
2022-08-22T02:44:29.996Z,94734.97
2022-08-22T02:47:09.680Z,94737.78
2022-08-22T02:49:46.863Z,94741.44
2022-08-22T02:52:18.790Z,94742.25
2022-08-22T02:54:56.258Z,94732.38
2022-08-22T02:57:34.556Z,94725.53
2022-08-22T03:00:31.628Z,94735.75
2022-08-22T03:03:06.320Z,94724.91
2022-08-22T03:05:48.141Z,94731.31
2022-08-22T03:08:22.432Z,94731.81
2022-08-22T03:11:01.210Z,94726.97
2022-08-22T03:13:40.284Z,94720.56
2022-08-22T03:16:16.432Z,94723.53
2022-08-22T03:18:56.223Z,94719.63
2022-08-22T03:21:30.282Z,94714.94
2022-08-22T03:24:05.491Z,94719.28
2022-08-22T03:26:49.253Z,94718.19
2022-08-22T03:29:20.324Z,94717.66
2022-08-22T03:32:08.318Z,94721.94
2022-08-22T03:34:35.577Z,94720.34
2022-08-22T03:37:11.758Z,94715.25
2022-08-22T03:39:51.306Z,94721.34
2022-08-22T03:42:44.166Z,94716.94
2022-08-22T03:45:26.590Z,94720.84
2022-08-22T03:48:29.314Z,94718.88
2022-08-22T03:51:13.418Z,94719.59
2022-08-22T03:54:11.197Z,94716.25
2022-08-22T03:57:18.169Z,94725.66
2022-08-22T04:00:12.847Z,94722.81
2022-08-22T04:03:06.066Z,94720.44
2022-08-22T04:05:58.266Z,94721.56
2022-08-22T04:08:51.680Z,94714.66
2022-08-22T04:11:42.587Z,94716.50
2022-08-22T04:14:25.478Z,94722.56
2022-08-22T04:17:06.269Z,94719.38
2022-08-22T04:19:49.250Z,94727.59
2022-08-22T04:22:54.643Z,94732.34
2022-08-22T04:25:26.842Z,94729.94
2022-08-22T04:28:02.718Z,94724.25
2022-08-22T04:30:35.294Z,94728.19
2022-08-22T04:33:08.741Z,94730.00
2022-08-22T04:35:42.772Z,94730.22
2022-08-22T04:38:16.694Z,94728.59
2022-08-22T04:40:50.186Z,94725.88
2022-08-22T04:43:23.140Z,94729.78
2022-08-22T04:45:54.968Z,94733.19
2022-08-22T04:48:30.626Z,94737.66
2022-08-22T04:51:00.876Z,94737.66
2022-08-22T04:53:52.520Z,94736.81
2022-08-22T04:56:27.245Z,94737.31
2022-08-22T04:58:58.348Z,94735.66
2022-08-22T05:01:37.163Z,94733.78
2022-08-22T05:04:09.898Z,94738.53
2022-08-22T05:06:40.152Z,94734.19
2022-08-22T05:09:16.012Z,94734.44
2022-08-22T05:11:43.509Z,94734.66
2022-08-22T05:14:16.294Z,94732.72
2022-08-22T05:16:49.343Z,94736.47
2022-08-22T05:19:31.129Z,94736.16
2022-08-22T05:21:58.146Z,94733.25
2022-08-22T05:24:31.808Z,94735.59
2022-08-22T05:27:04.795Z,94740.72
2022-08-22T05:29:32.802Z,94733.28
2022-08-22T05:32:02.496Z,94746.09
2022-08-22T05:34:34.353Z,94744.22
2022-08-22T05:37:08.385Z,94751.66
2022-08-22T05:39:38.403Z,94758.03
2022-08-22T05:42:13.314Z,94760.34
2022-08-22T05:44:45.394Z,94753.09
2022-08-22T05:47:21.741Z,94750.94
2022-08-22T05:49:58.997Z,94758.47
2022-08-22T05:52:39.841Z,94766.53
2022-08-22T05:55:15.662Z,94764.34
2022-08-22T05:57:49.285Z,94771.16
2022-08-22T06:00:20.995Z,94775.34
2022-08-22T06:03:00.699Z,94775.44
2022-08-22T06:05:33.707Z,94770.16
2022-08-22T06:08:06.110Z,94773.09
2022-08-22T06:10:42.208Z,94774.19
2022-08-22T06:13:15.073Z,94776.66
2022-08-22T06:15:51.642Z,94770.00
2022-08-22T06:18:24.610Z,94770.53
2022-08-22T06:20:55.959Z,94769.75
2022-08-22T06:23:26.747Z,94778.03
2022-08-22T06:25:57.564Z,94782.13
2022-08-22T06:28:26.668Z,94775.59
2022-08-22T06:30:54.815Z,94781.72
2022-08-22T06:33:25.417Z,94777.47
2022-08-22T06:36:20.559Z,94786.59
2022-08-22T06:38:56.345Z,94780.94
2022-08-22T06:41:26.763Z,94774.00
2022-08-22T06:43:54.863Z,94781.19
2022-08-22T06:46:25.988Z,94785.09
2022-08-22T06:48:55.266Z,94784.19
2022-08-22T06:51:25.774Z,94777.44
2022-08-22T06:53:57.535Z,94780.19
2022-08-22T06:56:29.519Z,94784.97
2022-08-22T06:58:59.653Z,94790.56
2022-08-22T07:01:30.572Z,94788.03
2022-08-22T07:04:00.452Z,94789.88
2022-08-22T07:06:34.201Z,94791.38
2022-08-22T07:09:05.667Z,94781.81
2022-08-22T07:11:38.017Z,94788.00
2022-08-22T07:14:06.921Z,94780.69
2022-08-22T07:16:39.721Z,94775.53
2022-08-22T07:19:07.953Z,94777.03
2022-08-22T07:21:44.587Z,94777.88
2022-08-22T07:24:15.784Z,94776.34
2022-08-22T07:26:49.719Z,94772.59
2022-08-22T07:29:23.313Z,94777.47
2022-08-22T07:31:59.005Z,94772.75
2022-08-22T07:34:40.559Z,94770.44
2022-08-22T07:37:16.313Z,94776.75
2022-08-22T07:39:51.096Z,94770.56
2022-08-22T07:42:28.575Z,94772.44
2022-08-22T07:45:07.736Z,94766.53
2022-08-22T07:47:52.646Z,94766.19
2022-08-22T07:50:24.558Z,94760.81
2022-08-22T07:52:56.867Z,94766.31
2022-08-22T07:55:26.223Z,94761.63
2022-08-22T07:57:55.804Z,94768.03
2022-08-22T08:00:24.085Z,94755.59
2022-08-22T08:02:53.141Z,94758.72
2022-08-22T08:05:24.049Z,94759.44
2022-08-22T08:07:55.027Z,94763.63
2022-08-22T08:10:25.656Z,94760.09
2022-08-22T08:13:02.439Z,94763.84
2022-08-22T08:15:32.545Z,94765.19
2022-08-22T08:18:06.465Z,94764.38
2022-08-22T08:20:35.789Z,94757.78
2022-08-22T08:23:06.628Z,94761.13
2022-08-22T08:25:48.490Z,94755.13
2022-08-22T08:28:41.033Z,94762.63
2022-08-22T08:31:20.419Z,94761.22
2022-08-22T08:33:50.340Z,94761.78
2022-08-22T08:36:34.431Z,94759.44
2022-08-22T08:39:14.154Z,94756.41
2022-08-22T08:41:57.946Z,94752.88
2022-08-22T08:44:43.896Z,94757.00
2022-08-22T08:47:28.058Z,94748.25
2022-08-22T08:50:21.053Z,94750.00
2022-08-22T08:53:06.672Z,94746.13
2022-08-22T08:55:46.202Z,94747.00
2022-08-22T08:58:34.184Z,94751.72
2022-08-22T09:01:20.336Z,94749.09
2022-08-22T09:04:22.318Z,94745.22
2022-08-22T09:07:06.813Z,94749.06
2022-08-22T09:09:52.315Z,94742.25
2022-08-22T09:12:43.400Z,94736.56
2022-08-22T09:15:58.556Z,94742.09
2022-08-22T09:19:11.562Z,94743.50
2022-08-22T09:22:14.533Z,94742.06
2022-08-22T09:25:17.738Z,94738.41
2022-08-22T09:27:55.810Z,94742.50
2022-08-22T09:30:27.725Z,94733.59
2022-08-22T09:33:00.958Z,94737.88
2022-08-22T09:35:39.450Z,94729.19
2022-08-22T09:38:25.758Z,94735.78
2022-08-22T09:41:00.266Z,94737.22
2022-08-22T09:43:37.780Z,94733.91
2022-08-22T09:46:18.655Z,94737.59
2022-08-22T09:49:00.776Z,94732.44
2022-08-22T09:51:38.834Z,94735.00
2022-08-22T09:54:23.037Z,94736.91
2022-08-22T09:56:59.527Z,94730.97
2022-08-22T09:59:42.850Z,94726.03
2022-08-22T10:02:22.687Z,94727.66
2022-08-22T10:04:58.178Z,94732.91
2022-08-22T10:07:35.413Z,94724.47
2022-08-22T10:10:15.678Z,94723.38
2022-08-22T10:12:53.773Z,94727.09
2022-08-22T10:15:33.630Z,94727.69
2022-08-22T10:18:14.796Z,94723.38
2022-08-22T10:20:55.129Z,94715.13
2022-08-22T10:23:29.989Z,94710.84
2022-08-22T10:26:12.918Z,94715.63
2022-08-22T10:28:55.179Z,94708.75
2022-08-22T10:31:30.253Z,94714.72
2022-08-22T10:34:09.012Z,94712.38
2022-08-22T10:36:45.826Z,94719.59
2022-08-22T10:39:22.620Z,94710.84
2022-08-22T10:42:18.573Z,94711.75
2022-08-22T10:44:58.523Z,94717.84
2022-08-22T10:47:35.662Z,94714.69
2022-08-22T10:50:11.648Z,94718.34
2022-08-22T10:52:46.903Z,94715.84
2022-08-22T10:55:17.375Z,94715.94
2022-08-22T10:58:02.210Z,94713.75
2022-08-22T11:00:46.101Z,94717.69
2022-08-22T11:03:21.827Z,94709.84
2022-08-22T11:05:52.945Z,94711.25
2022-08-22T11:08:34.948Z,94720.47
2022-08-22T11:11:12.441Z,94721.22
2022-08-22T11:13:43.573Z,94716.94
2022-08-22T11:16:36.629Z,94710.06
2022-08-22T11:19:38.754Z,94708.34
2022-08-22T11:22:20.392Z,94709.34
2022-08-22T11:25:13.930Z,94706.28
2022-08-22T11:27:51.455Z,94715.22
2022-08-22T11:30:24.040Z,94716.56
2022-08-22T11:33:20.334Z,94717.25
2022-08-22T11:35:56.132Z,94716.78
2022-08-22T11:38:38.695Z,94711.84
2022-08-22T11:41:11.397Z,94700.72
2022-08-22T11:43:48.824Z,94701.47
2022-08-22T11:46:23.547Z,94706.63
2022-08-22T11:49:09.038Z,94704.16
2022-08-22T11:51:58.003Z,94708.41
2022-08-22T11:54:33.606Z,94704.84
2022-08-22T11:57:06.542Z,94702.09
2022-08-22T11:59:56.068Z,94695.47
2022-08-22T12:02:31.168Z,94697.78
2022-08-22T12:05:04.787Z,94700.50
2022-08-22T12:07:39.253Z,94695.97
2022-08-22T12:10:15.090Z,94697.22
2022-08-22T12:12:55.621Z,94700.00
2022-08-22T12:15:27.830Z,94699.44
2022-08-22T12:18:21.765Z,94695.81
2022-08-22T12:21:09.801Z,94694.25
2022-08-22T12:23:55.910Z,94692.50
2022-08-22T12:26:30.892Z,94694.50
2022-08-22T12:29:18.564Z,94686.19
2022-08-22T12:32:33.966Z,94682.28
2022-08-22T12:35:29.698Z,94676.53
2022-08-22T12:38:29.104Z,94682.88
2022-08-22T12:41:28.267Z,94684.91
2022-08-22T12:44:17.114Z,94669.44
2022-08-22T12:47:00.848Z,94675.97
2022-08-22T12:49:44.932Z,94667.06
2022-08-22T12:52:28.493Z,94670.75
2022-08-22T12:55:17.944Z,94667.72
2022-08-22T12:57:56.138Z,94662.69
2022-08-22T13:00:31.884Z,94662.78
2022-08-22T13:03:03.162Z,94657.81
2022-08-22T13:05:34.369Z,94658.91
2022-08-22T13:08:12.706Z,94657.78
2022-08-22T13:10:44.907Z,94654.78
2022-08-22T13:13:28.237Z,94652.53
2022-08-22T13:16:06.610Z,94653.25
2022-08-22T13:18:37.870Z,94645.22
2022-08-22T13:21:12.712Z,94649.13
2022-08-22T13:23:45.368Z,94635.00
2022-08-22T13:26:32.004Z,94636.97
2022-08-22T13:29:25.228Z,94638.88
2022-08-22T13:31:56.228Z,94637.59
2022-08-22T13:34:39.834Z,94633.78
2022-08-22T13:37:11.680Z,94637.31
2022-08-22T13:39:44.285Z,94637.56
2022-08-22T13:42:20.398Z,94632.13
2022-08-22T13:45:02.503Z,94633.91
2022-08-22T13:47:32.342Z,94633.81
2022-08-22T13:50:08.829Z,94633.91
2022-08-22T13:52:39.064Z,94631.94
2022-08-22T13:55:12.716Z,94636.66
2022-08-22T13:57:44.896Z,94630.94
2022-08-22T14:00:59.850Z,94634.88
2022-08-22T14:03:35.338Z,94631.41
2022-08-22T14:06:35.506Z,94626.41
2022-08-22T14:09:13.968Z,94622.06
2022-08-22T14:11:45.821Z,94623.59
2022-08-22T14:14:22.422Z,94624.78
2022-08-22T14:16:53.554Z,94621.00
2022-08-22T14:19:27.378Z,94623.69
2022-08-22T14:21:59.594Z,94618.16
2022-08-22T14:24:30.725Z,94617.75
2022-08-22T14:27:05.441Z,94614.16
2022-08-22T14:29:41.806Z,94609.41
2022-08-22T14:32:35.281Z,94614.03
2022-08-22T14:35:21.660Z,94608.47
2022-08-22T14:37:57.403Z,94609.25
2022-08-22T14:40:29.725Z,94616.63
2022-08-22T14:43:06.102Z,94620.94
2022-08-22T14:45:37.964Z,94610.50
2022-08-22T14:48:30.556Z,94608.59
2022-08-22T14:51:03.843Z,94609.25
2022-08-22T14:53:33.617Z,94603.78
2022-08-22T14:56:06.377Z,94620.41
2022-08-22T14:58:36.748Z,94609.97
2022-08-22T15:01:11.091Z,94615.81
2022-08-22T15:03:40.926Z,94618.88
2022-08-22T15:06:12.472Z,94624.25
2022-08-22T15:08:47.970Z,94616.88
2022-08-22T15:11:23.046Z,94620.69
2022-08-22T15:14:01.720Z,94619.47
2022-08-22T15:16:33.350Z,94615.56
2022-08-22T15:19:03.251Z,94617.84
2022-08-22T15:21:32.221Z,94615.31
2022-08-22T15:24:09.895Z,94620.97
2022-08-22T15:26:41.157Z,94614.53
2022-08-22T15:29:16.217Z,94619.91
2022-08-22T15:31:46.868Z,94623.72
2022-08-22T15:34:24.348Z,94620.66
2022-08-22T15:37:26.154Z,94617.53
2022-08-22T15:40:03.024Z,94621.31
2022-08-22T15:42:37.553Z,94621.63
2022-08-22T15:45:05.809Z,94620.06
2022-08-22T15:47:39.313Z,94625.06
2022-08-22T15:50:14.647Z,94626.59
2022-08-22T15:53:08.909Z,94631.53
2022-08-22T15:55:37.087Z,94632.56
2022-08-22T15:58:10.104Z,94627.50
2022-08-22T16:00:43.838Z,94632.44
2022-08-22T16:03:23.892Z,94624.06
2022-08-22T16:05:55.976Z,94635.84
2022-08-22T16:08:27.952Z,94634.66
2022-08-22T16:11:32.444Z,94632.72
2022-08-22T16:14:22.189Z,94638.78
2022-08-22T16:16:56.272Z,94634.88
2022-08-22T16:19:24.744Z,94641.34
2022-08-22T16:22:19.764Z,94638.28
2022-08-22T16:25:06.664Z,94640.13
2022-08-22T16:27:50.409Z,94644.63
2022-08-22T16:30:32.482Z,94643.69
2022-08-22T16:32:59.801Z,94644.28
2022-08-22T16:36:03.976Z,94643.34
2022-08-22T16:38:41.619Z,94644.63
2022-08-22T16:41:25.323Z,94649.94
2022-08-22T16:44:30.731Z,94650.25
2022-08-22T16:47:09.248Z,94652.34
2022-08-22T16:49:53.647Z,94646.44
2022-08-22T16:52:55.556Z,94656.47
2022-08-22T16:55:47.528Z,94650.25
2022-08-22T16:58:56.179Z,94659.06
2022-08-22T17:01:44.038Z,94660.13
2022-08-22T17:04:20.472Z,94654.28
2022-08-22T17:07:02.210Z,94661.19
2022-08-22T17:09:49.324Z,94665.38
2022-08-22T17:12:30.534Z,94663.00
2022-08-22T17:15:07.284Z,94663.00
2022-08-22T17:17:49.511Z,94659.84
2022-08-22T17:20:28.012Z,94671.75
2022-08-22T17:23:00.160Z,94672.72
2022-08-22T17:25:34.815Z,94675.59
2022-08-22T17:28:18.153Z,94675.44
2022-08-22T17:30:55.688Z,94674.47
2022-08-22T17:33:35.270Z,94674.38
2022-08-22T17:36:21.087Z,94680.47
2022-08-22T17:39:03.680Z,94678.03
2022-08-22T17:41:38.267Z,94688.75
2022-08-22T17:44:18.549Z,94684.03
2022-08-22T17:46:50.793Z,94680.44
2022-08-22T17:49:28.723Z,94684.97
2022-08-22T17:51:59.972Z,94686.25
2022-08-22T17:54:35.493Z,94690.34
2022-08-22T17:57:06.481Z,94694.88
2022-08-22T17:59:47.562Z,94691.38
2022-08-22T18:02:19.139Z,94692.41
2022-08-22T18:04:52.403Z,94693.09
2022-08-22T18:07:27.993Z,94691.88
2022-08-22T18:09:59.257Z,94696.84
2022-08-22T18:12:34.440Z,94703.38
2022-08-22T18:15:09.173Z,94699.31
2022-08-22T18:17:40.996Z,94702.63
2022-08-22T18:20:15.354Z,94705.25
2022-08-22T18:22:48.660Z,94707.81
2022-08-22T18:25:32.366Z,94708.28
2022-08-22T18:28:03.587Z,94712.59
2022-08-22T18:30:36.797Z,94722.06
2022-08-22T18:33:11.317Z,94721.06
2022-08-22T18:35:44.191Z,94719.69
2022-08-22T18:38:22.563Z,94722.19
2022-08-22T18:40:54.401Z,94723.09
2022-08-22T18:43:35.117Z,94729.75
2022-08-22T18:46:25.650Z,94729.41
2022-08-22T18:49:14.222Z,94738.69
2022-08-22T18:51:41.507Z,94739.13
2022-08-22T18:54:37.456Z,94738.09
2022-08-22T18:57:24.382Z,94749.31
2022-08-22T19:00:03.300Z,94749.09
2022-08-22T19:02:56.172Z,94753.56
2022-08-22T19:05:41.288Z,94755.38
2022-08-22T19:08:49.318Z,94756.47
2022-08-22T19:11:37.327Z,94762.63
2022-08-22T19:14:34.184Z,94762.47
2022-08-22T19:17:22.253Z,94763.50
2022-08-22T19:20:14.410Z,94766.88
2022-08-22T19:22:41.632Z,94775.16
2022-08-22T19:25:17.591Z,94785.94
2022-08-22T19:27:47.335Z,94782.66
2022-08-22T19:30:38.755Z,94778.41
2022-08-22T19:33:07.470Z,94785.44
2022-08-22T19:36:04.767Z,94782.59
2022-08-22T19:38:52.888Z,94787.72
2022-08-22T19:41:43.508Z,94784.75
2022-08-22T19:44:13.368Z,94781.81
2022-08-22T19:46:42.055Z,94791.84
2022-08-22T19:49:27.320Z,94793.34
2022-08-22T19:52:26.650Z,94783.78
2022-08-22T19:55:00.455Z,94796.19
2022-08-22T19:57:38.706Z,94791.63
2022-08-22T20:00:09.728Z,94791.03
2022-08-22T20:02:50.617Z,94791.09
2022-08-22T20:05:28.274Z,94797.75
2022-08-22T20:08:18.025Z,94791.19
2022-08-22T20:10:57.620Z,94791.84
2022-08-22T20:13:27.671Z,94786.50
2022-08-22T20:16:13.569Z,94794.22
2022-08-22T20:19:15.439Z,94789.84
2022-08-22T20:21:51.970Z,94784.28
2022-08-22T20:24:25.489Z,94791.09
2022-08-22T20:27:13.502Z,94788.09
2022-08-22T20:29:47.036Z,94787.31
2022-08-22T20:32:17.949Z,94790.13
2022-08-22T20:34:46.613Z,94789.84
2022-08-22T20:37:32.228Z,94787.94
2022-08-22T20:40:53.319Z,94782.72
2022-08-22T20:43:11.013Z,94789.50
2022-08-22T20:45:47.984Z,94790.63
2022-08-22T20:48:15.638Z,94787.59
2022-08-22T20:50:42.463Z,94793.78
2022-08-22T20:53:15.546Z,94781.16
2022-08-22T20:55:52.819Z,94786.81
2022-08-22T20:58:22.827Z,94793.75
2022-08-22T21:00:53.213Z,94790.16
2022-08-22T21:03:33.136Z,94793.91
2022-08-22T21:06:12.091Z,94787.78
2022-08-22T21:08:39.648Z,94790.09
2022-08-22T21:11:27.671Z,94792.47
2022-08-22T21:13:55.716Z,94791.53
2022-08-22T21:16:31.536Z,94797.03
2022-08-22T21:19:03.238Z,94793.06
2022-08-22T21:21:32.018Z,94790.66
2022-08-22T21:24:02.245Z,94794.59
2022-08-22T21:26:35.206Z,94799.59
2022-08-22T21:29:05.246Z,94792.81
2022-08-22T21:31:35.282Z,94795.63
2022-08-22T21:34:02.961Z,94789.91
2022-08-22T21:36:31.909Z,94780.59
2022-08-22T21:39:01.146Z,94791.28
2022-08-22T21:41:37.250Z,94793.31
2022-08-22T21:44:27.936Z,94784.16
2022-08-22T21:46:55.680Z,94793.22
2022-08-22T21:49:24.832Z,94795.25
2022-08-22T21:51:52.764Z,94800.72
2022-08-22T21:54:32.797Z,94795.88
2022-08-22T21:57:16.688Z,94793.97
2022-08-22T21:59:51.992Z,94799.16
2022-08-22T22:02:39.690Z,94794.88
2022-08-22T22:05:09.440Z,94794.06
2022-08-22T22:07:38.103Z,94789.69
2022-08-22T22:10:08.273Z,94789.28
2022-08-22T22:12:38.569Z,94793.84
2022-08-22T22:15:06.203Z,94800.50
2022-08-22T22:17:33.147Z,94797.66
2022-08-22T22:19:59.916Z,94801.13
2022-08-22T22:22:26.657Z,94801.91
2022-08-22T22:24:53.350Z,94805.69
2022-08-22T22:27:20.338Z,94802.50
2022-08-22T22:29:48.387Z,94806.16
2022-08-22T22:32:15.264Z,94805.38
2022-08-22T22:34:42.027Z,94811.03
2022-08-22T22:37:11.764Z,94808.16
2022-08-22T22:39:38.829Z,94810.16
2022-08-22T22:42:05.954Z,94802.84
2022-08-22T22:44:32.785Z,94801.38
2022-08-22T22:47:02.368Z,94794.66
2022-08-22T22:49:29.450Z,94797.44
2022-08-22T22:51:56.506Z,94789.63
2022-08-22T22:54:27.176Z,94784.66
2022-08-22T22:56:54.798Z,94782.50
2022-08-22T22:59:24.573Z,94782.09
2022-08-22T23:02:05.097Z,94785.16
2022-08-22T23:04:33.838Z,94791.66
2022-08-22T23:07:00.829Z,94790.34
2022-08-22T23:09:38.418Z,94791.81
2022-08-22T23:12:12.573Z,94792.50
2022-08-22T23:14:39.295Z,94796.44
2022-08-22T23:17:07.998Z,94796.09
2022-08-22T23:19:35.650Z,94797.06
2022-08-22T23:22:02.337Z,94788.97
2022-08-22T23:24:31.103Z,94793.03
2022-08-22T23:27:00.029Z,94793.91
2022-08-22T23:29:26.915Z,94793.31
2022-08-22T23:31:55.729Z,94792.66
2022-08-22T23:34:26.210Z,94797.78
2022-08-22T23:36:55.792Z,94796.22
2022-08-22T23:39:24.385Z,94796.69
2022-08-22T23:41:52.106Z,94793.75
2022-08-22T23:44:21.083Z,94791.50
2022-08-22T23:46:47.758Z,94791.44
2022-08-22T23:49:15.643Z,94783.63
2022-08-22T23:51:44.905Z,94789.81
2022-08-22T23:54:12.367Z,94777.75
2022-08-22T23:56:41.381Z,94779.25
2022-08-22T23:59:09.469Z,94780.31
